sensor_id;sensor_type;location;lat;lon;timestamp;P1;durP1;ratioP1;P2;durP2;ratioP2
59978;SDS011;45839;44.882;20.650;2022-12-18T00:01:20;21.23;;;13.27;;
59978;SDS011;45839;44.882;20.650;2022-12-18T00:03:47;18.90;;;12.40;;
59978;SDS011;45839;44.882;20.650;2022-12-18T00:06:13;21.33;;;14.13;;
59978;SDS011;45839;44.882;20.650;2022-12-18T00:08:40;20.30;;;13.70;;
59978;SDS011;45839;44.882;20.650;2022-12-18T00:11:07;20.60;;;14.30;;
59978;SDS011;45839;44.882;20.650;2022-12-18T00:13:33;19.33;;;13.40;;
59978;SDS011;45839;44.882;20.650;2022-12-18T00:16:03;19.70;;;12.93;;
59978;SDS011;45839;44.882;20.650;2022-12-18T00:18:29;20.17;;;13.35;;
59978;SDS011;45839;44.882;20.650;2022-12-18T00:20:58;20.17;;;13.57;;
59978;SDS011;45839;44.882;20.650;2022-12-18T00:23:24;21.15;;;13.50;;
59978;SDS011;45839;44.882;20.650;2022-12-18T00:25:50;18.38;;;13.15;;
59978;SDS011;45839;44.882;20.650;2022-12-18T00:28:16;20.35;;;13.30;;
59978;SDS011;45839;44.882;20.650;2022-12-18T00:30:42;23.17;;;14.02;;
59978;SDS011;45839;44.882;20.650;2022-12-18T00:33:08;20.85;;;14.68;;
59978;SDS011;45839;44.882;20.650;2022-12-18T00:35:34;20.67;;;13.70;;
59978;SDS011;45839;44.882;20.650;2022-12-18T00:38:00;21.45;;;14.18;;
59978;SDS011;45839;44.882;20.650;2022-12-18T00:40:26;20.23;;;13.98;;
59978;SDS011;45839;44.882;20.650;2022-12-18T00:42:52;20.27;;;13.45;;
59978;SDS011;45839;44.882;20.650;2022-12-18T00:45:25;21.95;;;14.80;;
59978;SDS011;45839;44.882;20.650;2022-12-18T00:47:51;20.70;;;12.98;;
59978;SDS011;45839;44.882;20.650;2022-12-18T00:50:17;20.38;;;13.68;;
59978;SDS011;45839;44.882;20.650;2022-12-18T00:52:44;20.75;;;14.07;;
59978;SDS011;45839;44.882;20.650;2022-12-18T00:55:10;19.67;;;13.85;;
59978;SDS011;45839;44.882;20.650;2022-12-18T00:57:37;19.70;;;13.15;;
59978;SDS011;45839;44.882;20.650;2022-12-18T01:00:04;21.15;;;13.50;;
59978;SDS011;45839;44.882;20.650;2022-12-18T01:02:30;19.88;;;13.40;;
59978;SDS011;45839;44.882;20.650;2022-12-18T01:04:56;19.92;;;13.18;;
59978;SDS011;45839;44.882;20.650;2022-12-18T01:07:22;20.27;;;12.90;;
59978;SDS011;45839;44.882;20.650;2022-12-18T01:09:49;19.27;;;13.15;;
59978;SDS011;45839;44.882;20.650;2022-12-18T01:12:15;20.35;;;13.73;;
59978;SDS011;45839;44.882;20.650;2022-12-18T01:14:41;19.60;;;12.80;;
59978;SDS011;45839;44.882;20.650;2022-12-18T01:17:07;21.73;;;14.32;;
59978;SDS011;45839;44.882;20.650;2022-12-18T01:19:33;18.40;;;12.80;;
59978;SDS011;45839;44.882;20.650;2022-12-18T01:21:59;19.40;;;13.20;;
59978;SDS011;45839;44.882;20.650;2022-12-18T01:24:25;19.45;;;12.77;;
59978;SDS011;45839;44.882;20.650;2022-12-18T01:26:51;18.17;;;12.70;;
59978;SDS011;45839;44.882;20.650;2022-12-18T01:29:17;20.25;;;12.65;;
59978;SDS011;45839;44.882;20.650;2022-12-18T01:31:43;18.15;;;12.25;;
59978;SDS011;45839;44.882;20.650;2022-12-18T01:34:09;19.83;;;12.82;;
59978;SDS011;45839;44.882;20.650;2022-12-18T01:36:36;19.42;;;12.48;;
59978;SDS011;45839;44.882;20.650;2022-12-18T01:39:05;19.33;;;12.80;;
59978;SDS011;45839;44.882;20.650;2022-12-18T01:41:32;18.83;;;12.27;;
59978;SDS011;45839;44.882;20.650;2022-12-18T01:47:02;18.95;;;12.98;;
59978;SDS011;45839;44.882;20.650;2022-12-18T01:49:28;20.20;;;12.45;;
59978;SDS011;45839;44.882;20.650;2022-12-18T01:51:54;18.90;;;11.93;;
59978;SDS011;45839;44.882;20.650;2022-12-18T01:54:20;18.42;;;11.80;;
59978;SDS011;45839;44.882;20.650;2022-12-18T01:56:46;18.95;;;12.55;;
59978;SDS011;45839;44.882;20.650;2022-12-18T01:59:12;18.25;;;12.38;;
59978;SDS011;45839;44.882;20.650;2022-12-18T02:01:39;19.38;;;12.85;;
59978;SDS011;45839;44.882;20.650;2022-12-18T02:07:10;20.48;;;12.52;;
59978;SDS011;45839;44.882;20.650;2022-12-18T02:09:39;17.95;;;11.95;;
59978;SDS011;45839;44.882;20.650;2022-12-18T02:12:16;17.77;;;11.52;;
59978;SDS011;45839;44.882;20.650;2022-12-18T02:14:54;19.33;;;12.52;;
59978;SDS011;45839;44.882;20.650;2022-12-18T02:17:23;19.38;;;12.57;;
59978;SDS011;45839;44.882;20.650;2022-12-18T02:24:51;18.38;;;11.75;;
59978;SDS011;45839;44.882;20.650;2022-12-18T02:27:20;19.83;;;12.00;;
59978;SDS011;45839;44.882;20.650;2022-12-18T02:29:48;20.67;;;12.52;;
59978;SDS011;45839;44.882;20.650;2022-12-18T02:32:16;19.52;;;12.23;;
59978;SDS011;45839;44.882;20.650;2022-12-18T02:34:44;19.77;;;12.98;;
59978;SDS011;45839;44.882;20.650;2022-12-18T02:37:11;18.50;;;12.43;;
59978;SDS011;45839;44.882;20.650;2022-12-18T02:39:38;18.90;;;13.13;;
59978;SDS011;45839;44.882;20.650;2022-12-18T02:42:05;20.02;;;13.18;;
59978;SDS011;45839;44.882;20.650;2022-12-18T02:44:35;18.33;;;12.13;;
59978;SDS011;45839;44.882;20.650;2022-12-18T02:47:01;18.95;;;12.88;;
59978;SDS011;45839;44.882;20.650;2022-12-18T02:51:55;21.50;;;13.15;;
59978;SDS011;45839;44.882;20.650;2022-12-18T02:56:51;19.42;;;12.95;;
59978;SDS011;45839;44.882;20.650;2022-12-18T02:59:40;19.52;;;11.75;;
59978;SDS011;45839;44.882;20.650;2022-12-18T03:04:35;18.80;;;12.15;;
59978;SDS011;45839;44.882;20.650;2022-12-18T03:07:05;18.38;;;12.60;;
59978;SDS011;45839;44.882;20.650;2022-12-18T03:09:34;20.13;;;12.55;;
59978;SDS011;45839;44.882;20.650;2022-12-18T03:12:12;18.90;;;12.50;;
59978;SDS011;45839;44.882;20.650;2022-12-18T03:15:03;19.55;;;12.85;;
59978;SDS011;45839;44.882;20.650;2022-12-18T03:17:31;18.40;;;12.10;;
59978;SDS011;45839;44.882;20.650;2022-12-18T03:19:59;19.30;;;12.75;;
59978;SDS011;45839;44.882;20.650;2022-12-18T03:22:27;19.05;;;12.32;;
59978;SDS011;45839;44.882;20.650;2022-12-18T03:24:55;18.00;;;11.82;;
59978;SDS011;45839;44.882;20.650;2022-12-18T03:27:22;19.83;;;12.23;;
59978;SDS011;45839;44.882;20.650;2022-12-18T03:29:54;19.42;;;12.73;;
59978;SDS011;45839;44.882;20.650;2022-12-18T03:32:25;20.15;;;12.60;;
59978;SDS011;45839;44.882;20.650;2022-12-18T03:34:53;18.42;;;12.38;;
59978;SDS011;45839;44.882;20.650;2022-12-18T03:37:19;18.27;;;12.05;;
59978;SDS011;45839;44.882;20.650;2022-12-18T03:39:45;19.52;;;13.02;;
59978;SDS011;45839;44.882;20.650;2022-12-18T03:42:24;18.10;;;12.25;;
59978;SDS011;45839;44.882;20.650;2022-12-18T03:44:57;20.45;;;12.82;;
59978;SDS011;45839;44.882;20.650;2022-12-18T03:47:26;20.33;;;12.77;;
59978;SDS011;45839;44.882;20.650;2022-12-18T03:52:39;19.08;;;12.57;;
59978;SDS011;45839;44.882;20.650;2022-12-18T03:55:07;21.35;;;13.90;;
59978;SDS011;45839;44.882;20.650;2022-12-18T03:57:34;19.23;;;11.75;;
59978;SDS011;45839;44.882;20.650;2022-12-18T04:00:04;19.52;;;12.30;;
59978;SDS011;45839;44.882;20.650;2022-12-18T04:02:30;20.10;;;12.63;;
59978;SDS011;45839;44.882;20.650;2022-12-18T04:04:58;18.70;;;11.70;;
59978;SDS011;45839;44.882;20.650;2022-12-18T04:07:25;17.08;;;12.23;;
59978;SDS011;45839;44.882;20.650;2022-12-18T04:09:53;19.30;;;12.65;;
59978;SDS011;45839;44.882;20.650;2022-12-18T04:12:20;20.88;;;13.18;;
59978;SDS011;45839;44.882;20.650;2022-12-18T04:14:46;19.50;;;12.82;;
59978;SDS011;45839;44.882;20.650;2022-12-18T04:17:12;19.33;;;12.18;;
59978;SDS011;45839;44.882;20.650;2022-12-18T04:19:38;20.83;;;13.20;;
59978;SDS011;45839;44.882;20.650;2022-12-18T04:22:04;20.50;;;12.85;;
59978;SDS011;45839;44.882;20.650;2022-12-18T04:24:30;20.80;;;12.85;;
59978;SDS011;45839;44.882;20.650;2022-12-18T04:26:56;19.33;;;12.13;;
59978;SDS011;45839;44.882;20.650;2022-12-18T04:29:22;19.88;;;13.35;;
59978;SDS011;45839;44.882;20.650;2022-12-18T04:31:48;20.60;;;14.35;;
59978;SDS011;45839;44.882;20.650;2022-12-18T04:34:14;20.25;;;13.55;;
59978;SDS011;45839;44.882;20.650;2022-12-18T04:36:40;20.77;;;14.07;;
59978;SDS011;45839;44.882;20.650;2022-12-18T04:39:06;21.15;;;14.38;;
59978;SDS011;45839;44.882;20.650;2022-12-18T04:41:32;21.58;;;13.57;;
59978;SDS011;45839;44.882;20.650;2022-12-18T04:43:58;20.67;;;13.85;;
59978;SDS011;45839;44.882;20.650;2022-12-18T04:46:24;21.05;;;13.88;;
59978;SDS011;45839;44.882;20.650;2022-12-18T04:48:50;19.95;;;13.45;;
59978;SDS011;45839;44.882;20.650;2022-12-18T04:51:16;20.00;;;13.73;;
59978;SDS011;45839;44.882;20.650;2022-12-18T04:53:42;20.75;;;13.52;;
59978;SDS011;45839;44.882;20.650;2022-12-18T04:56:10;20.52;;;14.00;;
59978;SDS011;45839;44.882;20.650;2022-12-18T04:58:37;20.70;;;13.60;;
59978;SDS011;45839;44.882;20.650;2022-12-18T05:01:03;20.55;;;13.43;;
59978;SDS011;45839;44.882;20.650;2022-12-18T05:03:29;20.83;;;13.65;;
59978;SDS011;45839;44.882;20.650;2022-12-18T05:05:56;21.73;;;14.45;;
59978;SDS011;45839;44.882;20.650;2022-12-18T05:08:22;22.00;;;14.45;;
59978;SDS011;45839;44.882;20.650;2022-12-18T05:10:48;22.02;;;13.82;;
59978;SDS011;45839;44.882;20.650;2022-12-18T05:13:14;21.98;;;14.15;;
59978;SDS011;45839;44.882;20.650;2022-12-18T05:15:40;20.45;;;13.55;;
59978;SDS011;45839;44.882;20.650;2022-12-18T05:18:07;20.95;;;13.30;;
59978;SDS011;45839;44.882;20.650;2022-12-18T05:20:33;20.45;;;13.43;;
59978;SDS011;45839;44.882;20.650;2022-12-18T05:22:59;20.13;;;13.13;;
59978;SDS011;45839;44.882;20.650;2022-12-18T05:25:25;20.05;;;13.82;;
59978;SDS011;45839;44.882;20.650;2022-12-18T05:27:51;22.80;;;14.13;;
59978;SDS011;45839;44.882;20.650;2022-12-18T05:30:17;20.02;;;12.77;;
59978;SDS011;45839;44.882;20.650;2022-12-18T05:32:43;20.73;;;13.32;;
59978;SDS011;45839;44.882;20.650;2022-12-18T05:35:10;21.80;;;14.02;;
59978;SDS011;45839;44.882;20.650;2022-12-18T05:37:36;22.40;;;13.80;;
59978;SDS011;45839;44.882;20.650;2022-12-18T05:40:03;19.90;;;13.80;;
59978;SDS011;45839;44.882;20.650;2022-12-18T05:42:29;21.83;;;13.35;;
59978;SDS011;45839;44.882;20.650;2022-12-18T05:44:55;20.52;;;12.98;;
59978;SDS011;45839;44.882;20.650;2022-12-18T05:47:22;22.67;;;14.88;;
59978;SDS011;45839;44.882;20.650;2022-12-18T05:49:48;22.20;;;13.85;;
59978;SDS011;45839;44.882;20.650;2022-12-18T05:52:14;20.85;;;14.27;;
59978;SDS011;45839;44.882;20.650;2022-12-18T05:54:40;21.38;;;13.60;;
59978;SDS011;45839;44.882;20.650;2022-12-18T05:57:06;21.77;;;13.93;;
59978;SDS011;45839;44.882;20.650;2022-12-18T05:59:32;20.60;;;13.55;;
59978;SDS011;45839;44.882;20.650;2022-12-18T06:01:58;19.15;;;12.93;;
59978;SDS011;45839;44.882;20.650;2022-12-18T06:04:24;20.67;;;13.82;;
59978;SDS011;45839;44.882;20.650;2022-12-18T06:06:52;22.58;;;15.23;;
59978;SDS011;45839;44.882;20.650;2022-12-18T06:09:18;21.95;;;13.70;;
59978;SDS011;45839;44.882;20.650;2022-12-18T06:11:44;21.55;;;14.50;;
59978;SDS011;45839;44.882;20.650;2022-12-18T06:14:10;23.02;;;14.75;;
59978;SDS011;45839;44.882;20.650;2022-12-18T06:16:36;23.42;;;14.93;;
59978;SDS011;45839;44.882;20.650;2022-12-18T06:19:03;22.88;;;15.02;;
59978;SDS011;45839;44.882;20.650;2022-12-18T06:21:29;22.30;;;15.07;;
59978;SDS011;45839;44.882;20.650;2022-12-18T06:23:55;22.85;;;14.40;;
59978;SDS011;45839;44.882;20.650;2022-12-18T06:26:21;21.55;;;14.40;;
59978;SDS011;45839;44.882;20.650;2022-12-18T06:28:47;22.42;;;14.48;;
59978;SDS011;45839;44.882;20.650;2022-12-18T06:31:13;23.27;;;15.00;;
59978;SDS011;45839;44.882;20.650;2022-12-18T06:33:40;23.25;;;14.93;;
59978;SDS011;45839;44.882;20.650;2022-12-18T06:36:07;24.58;;;16.08;;
59978;SDS011;45839;44.882;20.650;2022-12-18T06:38:34;22.83;;;15.00;;
59978;SDS011;45839;44.882;20.650;2022-12-18T06:41:00;24.73;;;15.60;;
59978;SDS011;45839;44.882;20.650;2022-12-18T06:43:26;24.55;;;16.05;;
59978;SDS011;45839;44.882;20.650;2022-12-18T06:45:57;24.90;;;16.15;;
59978;SDS011;45839;44.882;20.650;2022-12-18T06:48:23;24.20;;;16.40;;
59978;SDS011;45839;44.882;20.650;2022-12-18T06:50:49;28.67;;;17.77;;
59978;SDS011;45839;44.882;20.650;2022-12-18T06:53:15;26.60;;;17.00;;
59978;SDS011;45839;44.882;20.650;2022-12-18T06:55:42;29.63;;;19.83;;
59978;SDS011;45839;44.882;20.650;2022-12-18T06:58:08;26.48;;;16.95;;
59978;SDS011;45839;44.882;20.650;2022-12-18T07:00:34;24.50;;;16.38;;
59978;SDS011;45839;44.882;20.650;2022-12-18T07:03:01;23.48;;;16.10;;
59978;SDS011;45839;44.882;20.650;2022-12-18T07:05:27;24.45;;;16.10;;
59978;SDS011;45839;44.882;20.650;2022-12-18T07:07:53;24.58;;;16.15;;
59978;SDS011;45839;44.882;20.650;2022-12-18T07:10:19;26.20;;;16.27;;
59978;SDS011;45839;44.882;20.650;2022-12-18T07:12:45;22.45;;;14.70;;
59978;SDS011;45839;44.882;20.650;2022-12-18T07:15:11;22.67;;;14.60;;
59978;SDS011;45839;44.882;20.650;2022-12-18T07:17:37;22.50;;;14.85;;
59978;SDS011;45839;44.882;20.650;2022-12-18T07:20:03;22.23;;;14.80;;
59978;SDS011;45839;44.882;20.650;2022-12-18T07:22:29;22.20;;;14.63;;
59978;SDS011;45839;44.882;20.650;2022-12-18T07:24:55;22.60;;;14.50;;
59978;SDS011;45839;44.882;20.650;2022-12-18T07:27:22;22.75;;;14.50;;
59978;SDS011;45839;44.882;20.650;2022-12-18T07:29:48;22.98;;;14.43;;
59978;SDS011;45839;44.882;20.650;2022-12-18T07:32:14;24.88;;;13.63;;
59978;SDS011;45839;44.882;20.650;2022-12-18T07:34:40;21.95;;;13.98;;
59978;SDS011;45839;44.882;20.650;2022-12-18T07:37:06;23.13;;;14.50;;
59978;SDS011;45839;44.882;20.650;2022-12-18T07:39:32;24.60;;;15.73;;
59978;SDS011;45839;44.882;20.650;2022-12-18T07:41:58;24.35;;;15.93;;
59978;SDS011;45839;44.882;20.650;2022-12-18T07:44:43;23.38;;;14.80;;
59978;SDS011;45839;44.882;20.650;2022-12-18T07:47:09;23.58;;;14.63;;
59978;SDS011;45839;44.882;20.650;2022-12-18T07:49:35;24.27;;;15.18;;
59978;SDS011;45839;44.882;20.650;2022-12-18T07:52:01;22.85;;;14.75;;
59978;SDS011;45839;44.882;20.650;2022-12-18T07:54:27;24.02;;;15.50;;
59978;SDS011;45839;44.882;20.650;2022-12-18T07:56:53;21.95;;;14.50;;
59978;SDS011;45839;44.882;20.650;2022-12-18T07:59:19;23.05;;;14.52;;
59978;SDS011;45839;44.882;20.650;2022-12-18T08:01:45;22.05;;;14.73;;
59978;SDS011;45839;44.882;20.650;2022-12-18T08:04:11;22.20;;;14.88;;
59978;SDS011;45839;44.882;20.650;2022-12-18T08:06:37;24.60;;;15.80;;
59978;SDS011;45839;44.882;20.650;2022-12-18T08:09:03;109.47;;;70.55;;
59978;SDS011;45839;44.882;20.650;2022-12-18T08:11:29;192.93;;;123.72;;
59978;SDS011;45839;44.882;20.650;2022-12-18T08:13:55;203.30;;;135.25;;
59978;SDS011;45839;44.882;20.650;2022-12-18T08:16:22;158.48;;;99.85;;
59978;SDS011;45839;44.882;20.650;2022-12-18T08:18:48;47.15;;;31.80;;
59978;SDS011;45839;44.882;20.650;2022-12-18T08:21:15;31.52;;;21.65;;
59978;SDS011;45839;44.882;20.650;2022-12-18T08:23:42;25.02;;;16.15;;
59978;SDS011;45839;44.882;20.650;2022-12-18T08:26:08;24.30;;;15.82;;
59978;SDS011;45839;44.882;20.650;2022-12-18T08:28:34;23.25;;;15.38;;
59978;SDS011;45839;44.882;20.650;2022-12-18T08:31:00;22.60;;;14.73;;
59978;SDS011;45839;44.882;20.650;2022-12-18T08:33:26;22.42;;;15.27;;
59978;SDS011;45839;44.882;20.650;2022-12-18T08:35:53;22.10;;;15.30;;
59978;SDS011;45839;44.882;20.650;2022-12-18T08:38:19;22.77;;;14.20;;
59978;SDS011;45839;44.882;20.650;2022-12-18T08:40:45;22.35;;;15.45;;
59978;SDS011;45839;44.882;20.650;2022-12-18T08:43:11;22.42;;;15.57;;
59978;SDS011;45839;44.882;20.650;2022-12-18T08:45:55;22.27;;;15.25;;
59978;SDS011;45839;44.882;20.650;2022-12-18T08:48:21;22.10;;;15.10;;
59978;SDS011;45839;44.882;20.650;2022-12-18T08:50:57;25.75;;;15.23;;
59978;SDS011;45839;44.882;20.650;2022-12-18T08:53:23;23.30;;;15.30;;
59978;SDS011;45839;44.882;20.650;2022-12-18T08:55:49;24.67;;;15.65;;
59978;SDS011;45839;44.882;20.650;2022-12-18T08:58:16;23.23;;;15.20;;
59978;SDS011;45839;44.882;20.650;2022-12-18T09:00:42;24.25;;;15.98;;
59978;SDS011;45839;44.882;20.650;2022-12-18T09:03:14;24.88;;;16.23;;
59978;SDS011;45839;44.882;20.650;2022-12-18T09:05:41;24.70;;;15.63;;
59978;SDS011;45839;44.882;20.650;2022-12-18T09:08:07;23.45;;;15.77;;
59978;SDS011;45839;44.882;20.650;2022-12-18T09:10:33;24.25;;;15.38;;
59978;SDS011;45839;44.882;20.650;2022-12-18T09:12:59;24.88;;;16.30;;
59978;SDS011;45839;44.882;20.650;2022-12-18T09:15:25;24.70;;;16.17;;
59978;SDS011;45839;44.882;20.650;2022-12-18T09:17:51;25.17;;;16.48;;
59978;SDS011;45839;44.882;20.650;2022-12-18T09:20:18;24.83;;;15.43;;
59978;SDS011;45839;44.882;20.650;2022-12-18T09:22:44;25.10;;;16.42;;
59978;SDS011;45839;44.882;20.650;2022-12-18T09:25:11;25.85;;;16.15;;
59978;SDS011;45839;44.882;20.650;2022-12-18T09:27:37;24.52;;;16.00;;
59978;SDS011;45839;44.882;20.650;2022-12-18T09:30:04;26.23;;;16.70;;
59978;SDS011;45839;44.882;20.650;2022-12-18T09:32:30;26.13;;;16.85;;
59978;SDS011;45839;44.882;20.650;2022-12-18T09:34:56;25.05;;;15.50;;
59978;SDS011;45839;44.882;20.650;2022-12-18T09:37:22;38.95;;;24.95;;
59978;SDS011;45839;44.882;20.650;2022-12-18T09:39:48;173.82;;;115.13;;
59978;SDS011;45839;44.882;20.650;2022-12-18T09:42:17;180.48;;;127.45;;
59978;SDS011;45839;44.882;20.650;2022-12-18T09:44:47;54.80;;;37.50;;
59978;SDS011;45839;44.882;20.650;2022-12-18T09:47:18;29.10;;;18.85;;
59978;SDS011;45839;44.882;20.650;2022-12-18T09:49:46;29.60;;;17.80;;
59978;SDS011;45839;44.882;20.650;2022-12-18T09:52:15;29.15;;;17.73;;
59978;SDS011;45839;44.882;20.650;2022-12-18T09:54:41;24.17;;;15.63;;
59978;SDS011;45839;44.882;20.650;2022-12-18T09:57:15;27.20;;;15.95;;
59978;SDS011;45839;44.882;20.650;2022-12-18T09:59:43;28.92;;;16.52;;
59978;SDS011;45839;44.882;20.650;2022-12-18T10:02:17;27.33;;;16.05;;
59978;SDS011;45839;44.882;20.650;2022-12-18T10:04:43;24.17;;;16.33;;
59978;SDS011;45839;44.882;20.650;2022-12-18T10:07:16;22.40;;;15.65;;
59978;SDS011;45839;44.882;20.650;2022-12-18T10:12:17;28.02;;;17.55;;
59978;SDS011;45839;44.882;20.650;2022-12-18T10:17:48;25.52;;;16.95;;
59978;SDS011;45839;44.882;20.650;2022-12-18T10:20:38;25.15;;;16.33;;
59978;SDS011;45839;44.882;20.650;2022-12-18T10:25:40;29.73;;;17.33;;
59978;SDS011;45839;44.882;20.650;2022-12-18T10:28:12;24.67;;;15.70;;
59978;SDS011;45839;44.882;20.650;2022-12-18T10:30:39;25.88;;;16.35;;
59978;SDS011;45839;44.882;20.650;2022-12-18T10:33:05;23.77;;;16.20;;
59978;SDS011;45839;44.882;20.650;2022-12-18T10:35:31;24.70;;;16.05;;
59978;SDS011;45839;44.882;20.650;2022-12-18T10:40:33;25.33;;;16.20;;
59978;SDS011;45839;44.882;20.650;2022-12-18T10:43:13;24.67;;;16.00;;
59978;SDS011;45839;44.882;20.650;2022-12-18T10:45:40;23.30;;;15.95;;
59978;SDS011;45839;44.882;20.650;2022-12-18T10:48:19;25.67;;;16.73;;
59978;SDS011;45839;44.882;20.650;2022-12-18T10:50:46;24.95;;;16.13;;
59978;SDS011;45839;44.882;20.650;2022-12-18T10:53:13;25.05;;;16.42;;
59978;SDS011;45839;44.882;20.650;2022-12-18T10:55:44;26.00;;;16.48;;
59978;SDS011;45839;44.882;20.650;2022-12-18T11:03:32;25.23;;;15.18;;
59978;SDS011;45839;44.882;20.650;2022-12-18T11:06:23;26.55;;;17.98;;
59978;SDS011;45839;44.882;20.650;2022-12-18T11:11:24;26.20;;;17.65;;
59978;SDS011;45839;44.882;20.650;2022-12-18T11:16:29;25.92;;;17.58;;
59978;SDS011;45839;44.882;20.650;2022-12-18T11:19:06;25.75;;;17.52;;
59978;SDS011;45839;44.882;20.650;2022-12-18T11:21:39;23.83;;;15.38;;
59978;SDS011;45839;44.882;20.650;2022-12-18T11:24:07;31.15;;;20.23;;
59978;SDS011;45839;44.882;20.650;2022-12-18T11:26:41;26.55;;;18.30;;
59978;SDS011;45839;44.882;20.650;2022-12-18T11:29:09;25.58;;;16.67;;
59978;SDS011;45839;44.882;20.650;2022-12-18T11:31:36;27.02;;;16.98;;
59978;SDS011;45839;44.882;20.650;2022-12-18T11:36:29;27.30;;;17.83;;
59978;SDS011;45839;44.882;20.650;2022-12-18T11:38:56;26.33;;;17.23;;
59978;SDS011;45839;44.882;20.650;2022-12-18T11:41:36;25.92;;;17.10;;
59978;SDS011;45839;44.882;20.650;2022-12-18T11:44:26;27.38;;;19.17;;
59978;SDS011;45839;44.882;20.650;2022-12-18T11:47:39;28.33;;;17.50;;
59978;SDS011;45839;44.882;20.650;2022-12-18T11:49:39;25.40;;;17.25;;
59978;SDS011;45839;44.882;20.650;2022-12-18T11:52:11;25.30;;;16.48;;
59978;SDS011;45839;44.882;20.650;2022-12-18T11:54:40;25.15;;;15.98;;
59978;SDS011;45839;44.882;20.650;2022-12-18T11:57:13;24.80;;;17.20;;
59978;SDS011;45839;44.882;20.650;2022-12-18T11:59:48;25.40;;;16.77;;
59978;SDS011;45839;44.882;20.650;2022-12-18T12:02:21;26.95;;;17.08;;
59978;SDS011;45839;44.882;20.650;2022-12-18T12:07:38;23.55;;;15.68;;
59978;SDS011;45839;44.882;20.650;2022-12-18T12:10:19;24.92;;;16.27;;
59978;SDS011;45839;44.882;20.650;2022-12-18T12:13:02;24.98;;;15.98;;
59978;SDS011;45839;44.882;20.650;2022-12-18T12:18:33;24.83;;;16.67;;
59978;SDS011;45839;44.882;20.650;2022-12-18T12:23:43;25.98;;;17.35;;
59978;SDS011;45839;44.882;20.650;2022-12-18T12:31:31;27.23;;;16.65;;
59978;SDS011;45839;44.882;20.650;2022-12-18T12:36:44;26.58;;;17.77;;
59978;SDS011;45839;44.882;20.650;2022-12-18T12:39:14;24.70;;;16.55;;
59978;SDS011;45839;44.882;20.650;2022-12-18T12:41:42;26.95;;;17.70;;
59978;SDS011;45839;44.882;20.650;2022-12-18T12:44:49;24.63;;;16.55;;
59978;SDS011;45839;44.882;20.650;2022-12-18T12:47:18;24.60;;;16.35;;
59978;SDS011;45839;44.882;20.650;2022-12-18T12:49:46;27.42;;;17.75;;
59978;SDS011;45839;44.882;20.650;2022-12-18T12:52:30;27.00;;;17.77;;
59978;SDS011;45839;44.882;20.650;2022-12-18T12:54:57;42.38;;;23.67;;
59978;SDS011;45839;44.882;20.650;2022-12-18T13:00:16;28.48;;;18.13;;
59978;SDS011;45839;44.882;20.650;2022-12-18T13:07:51;26.23;;;17.23;;
59978;SDS011;45839;44.882;20.650;2022-12-18T13:12:59;26.30;;;17.60;;
59978;SDS011;45839;44.882;20.650;2022-12-18T13:15:28;26.75;;;18.40;;
59978;SDS011;45839;44.882;20.650;2022-12-18T13:18:05;27.95;;;18.80;;
59978;SDS011;45839;44.882;20.650;2022-12-18T13:20:36;33.38;;;22.95;;
59978;SDS011;45839;44.882;20.650;2022-12-18T13:36:42;29.88;;;20.85;;
59978;SDS011;45839;44.882;20.650;2022-12-18T13:39:09;30.20;;;19.80;;
59978;SDS011;45839;44.882;20.650;2022-12-18T13:41:35;28.30;;;19.88;;
59978;SDS011;45839;44.882;20.650;2022-12-18T13:46:43;30.52;;;20.08;;
59978;SDS011;45839;44.882;20.650;2022-12-18T13:51:39;30.63;;;21.25;;
59978;SDS011;45839;44.882;20.650;2022-12-18T13:56:46;34.03;;;21.55;;
59978;SDS011;45839;44.882;20.650;2022-12-18T13:59:22;29.67;;;20.15;;
59978;SDS011;45839;44.882;20.650;2022-12-18T14:01:53;29.70;;;19.10;;
59978;SDS011;45839;44.882;20.650;2022-12-18T14:06:46;34.35;;;22.08;;
59978;SDS011;45839;44.882;20.650;2022-12-18T14:09:13;32.88;;;22.17;;
59978;SDS011;45839;44.882;20.650;2022-12-18T14:11:39;31.70;;;20.98;;
59978;SDS011;45839;44.882;20.650;2022-12-18T14:14:06;30.83;;;19.40;;
59978;SDS011;45839;44.882;20.650;2022-12-18T14:16:32;29.13;;;19.67;;
59978;SDS011;45839;44.882;20.650;2022-12-18T14:18:59;30.38;;;20.48;;
59978;SDS011;45839;44.882;20.650;2022-12-18T14:21:26;31.67;;;21.95;;
59978;SDS011;45839;44.882;20.650;2022-12-18T14:24:03;35.05;;;23.95;;
59978;SDS011;45839;44.882;20.650;2022-12-18T14:26:29;35.00;;;24.23;;
59978;SDS011;45839;44.882;20.650;2022-12-18T14:28:56;35.30;;;23.55;;
59978;SDS011;45839;44.882;20.650;2022-12-18T14:31:23;35.53;;;23.13;;
59978;SDS011;45839;44.882;20.650;2022-12-18T14:33:50;32.85;;;21.17;;
59978;SDS011;45839;44.882;20.650;2022-12-18T14:36:21;31.27;;;20.17;;
59978;SDS011;45839;44.882;20.650;2022-12-18T14:38:48;30.83;;;20.17;;
59978;SDS011;45839;44.882;20.650;2022-12-18T14:41:15;30.23;;;19.20;;
59978;SDS011;45839;44.882;20.650;2022-12-18T14:43:42;29.00;;;19.15;;
59978;SDS011;45839;44.882;20.650;2022-12-18T14:46:28;29.60;;;19.05;;
59978;SDS011;45839;44.882;20.650;2022-12-18T14:48:54;28.90;;;19.02;;
59978;SDS011;45839;44.882;20.650;2022-12-18T14:51:21;28.50;;;18.92;;
59978;SDS011;45839;44.882;20.650;2022-12-18T14:53:55;29.60;;;19.20;;
59978;SDS011;45839;44.882;20.650;2022-12-18T14:58:50;28.48;;;18.85;;
59978;SDS011;45839;44.882;20.650;2022-12-18T15:03:50;31.05;;;19.13;;
59978;SDS011;45839;44.882;20.650;2022-12-18T15:06:17;31.52;;;21.23;;
59978;SDS011;45839;44.882;20.650;2022-12-18T15:08:43;30.88;;;20.42;;
59978;SDS011;45839;44.882;20.650;2022-12-18T15:11:44;30.52;;;20.25;;
59978;SDS011;45839;44.882;20.650;2022-12-18T15:16:50;30.38;;;19.20;;
59978;SDS011;45839;44.882;20.650;2022-12-18T15:19:17;28.73;;;19.45;;
59978;SDS011;45839;44.882;20.650;2022-12-18T15:21:43;29.88;;;19.48;;
59978;SDS011;45839;44.882;20.650;2022-12-18T15:24:20;30.60;;;19.33;;
59978;SDS011;45839;44.882;20.650;2022-12-18T15:26:49;29.13;;;19.17;;
59978;SDS011;45839;44.882;20.650;2022-12-18T15:29:18;30.27;;;19.85;;
59978;SDS011;45839;44.882;20.650;2022-12-18T15:31:45;31.65;;;21.00;;
59978;SDS011;45839;44.882;20.650;2022-12-18T15:34:23;30.80;;;20.52;;
59978;SDS011;45839;44.882;20.650;2022-12-18T15:36:50;28.85;;;19.48;;
59978;SDS011;45839;44.882;20.650;2022-12-18T15:39:16;30.95;;;19.48;;
59978;SDS011;45839;44.882;20.650;2022-12-18T15:41:42;30.05;;;20.38;;
59978;SDS011;45839;44.882;20.650;2022-12-18T15:44:28;32.63;;;20.83;;
59978;SDS011;45839;44.882;20.650;2022-12-18T15:46:54;35.20;;;22.42;;
59978;SDS011;45839;44.882;20.650;2022-12-18T15:49:20;35.85;;;23.10;;
59978;SDS011;45839;44.882;20.650;2022-12-18T15:51:48;34.15;;;23.20;;
59978;SDS011;45839;44.882;20.650;2022-12-18T15:54:15;33.22;;;21.42;;
59978;SDS011;45839;44.882;20.650;2022-12-18T15:56:42;32.65;;;20.48;;
59978;SDS011;45839;44.882;20.650;2022-12-18T15:59:26;31.50;;;20.17;;